createdAt,value
2019-05-25T00:01:00.777Z,8.40
2019-05-25T00:03:28.991Z,9.28
2019-05-25T00:05:57.214Z,8.83
2019-05-25T00:08:25.424Z,9.10
2019-05-25T00:10:53.665Z,9.05
2019-05-25T00:13:21.875Z,9.35
2019-05-25T00:15:50.095Z,7.25
2019-05-25T00:18:18.352Z,11.60
2019-05-25T00:20:46.560Z,9.08
2019-05-25T00:23:14.803Z,8.40
2019-05-25T00:25:43.039Z,11.33
2019-05-25T00:28:11.281Z,7.75
2019-05-25T00:30:39.495Z,7.15
2019-05-25T00:33:07.737Z,7.55
2019-05-25T00:35:35.975Z,9.35
2019-05-25T00:38:04.198Z,11.28
2019-05-25T00:40:32.420Z,9.48
2019-05-25T00:43:00.652Z,14.03
2019-05-25T00:45:28.870Z,13.50
2019-05-25T00:47:57.095Z,12.50
2019-05-25T00:50:25.316Z,12.65
2019-05-25T00:52:53.549Z,11.22
2019-05-25T00:55:21.764Z,10.38
2019-05-25T00:57:50.357Z,11.50
2019-05-25T01:00:18.582Z,11.22
2019-05-25T01:02:46.819Z,10.98
2019-05-25T01:05:15.132Z,12.30
2019-05-25T01:07:43.353Z,9.33
2019-05-25T01:10:12.242Z,17.90
2019-05-25T01:12:40.440Z,14.85
2019-05-25T01:15:08.649Z,11.38
2019-05-25T01:17:36.889Z,13.10
2019-05-25T01:20:07.874Z,8.90
2019-05-25T01:22:36.197Z,11.30
2019-05-25T01:25:05.387Z,13.72
2019-05-25T01:27:33.630Z,14.25
2019-05-25T01:30:01.848Z,12.05
2019-05-25T01:32:30.065Z,11.83
2019-05-25T01:34:58.319Z,11.90
2019-05-25T01:37:26.528Z,9.95
2019-05-25T01:39:54.852Z,13.00
2019-05-25T01:42:23.080Z,11.83
2019-05-25T01:44:51.356Z,11.53
2019-05-25T01:47:19.581Z,12.68
2019-05-25T01:49:47.883Z,13.15
2019-05-25T01:52:16.111Z,8.68
2019-05-25T01:54:58.902Z,12.28
2019-05-25T01:57:14.329Z,11.78
2019-05-25T01:59:42.523Z,15.05
2019-05-25T02:02:10.762Z,8.60
2019-05-25T02:04:38.991Z,12.70
2019-05-25T02:07:07.250Z,8.38
2019-05-25T02:09:35.488Z,8.75
2019-05-25T02:12:03.701Z,9.58
2019-05-25T02:14:31.928Z,14.37
2019-05-25T02:17:00.152Z,13.62
2019-05-25T02:19:28.370Z,12.50
2019-05-25T02:21:56.611Z,11.93
2019-05-25T02:24:24.840Z,14.90
2019-05-25T02:26:53.073Z,11.55
2019-05-25T02:29:21.308Z,10.90
2019-05-25T02:31:49.564Z,10.53
2019-05-25T02:34:17.865Z,13.55
2019-05-25T02:36:46.121Z,13.68
2019-05-25T02:39:14.368Z,11.50
2019-05-25T02:41:42.588Z,12.25
2019-05-25T02:44:10.789Z,13.10
2019-05-25T02:46:39.049Z,11.80
2019-05-25T02:49:07.270Z,14.20
2019-05-25T02:51:35.567Z,13.62
2019-05-25T02:54:03.844Z,10.53
2019-05-25T02:56:32.081Z,11.85
2019-05-25T02:59:00.329Z,11.35
2019-05-25T03:01:28.548Z,14.73
2019-05-25T03:03:56.784Z,8.95
2019-05-25T03:06:24.999Z,15.10
2019-05-25T03:08:53.407Z,11.00
2019-05-25T03:11:21.631Z,11.48
2019-05-25T03:13:49.875Z,14.68
2019-05-25T03:16:18.178Z,15.63
2019-05-25T03:18:46.515Z,11.78
2019-05-25T03:21:14.782Z,10.32
2019-05-25T03:23:43.003Z,12.18
2019-05-25T03:26:11.238Z,11.12
2019-05-25T03:28:39.457Z,10.75
2019-05-25T03:31:07.692Z,16.25
2019-05-25T03:33:35.909Z,11.78
2019-05-25T03:36:04.214Z,10.83
2019-05-25T03:38:32.411Z,12.87
2019-05-25T03:41:00.687Z,14.55
2019-05-25T03:43:28.906Z,13.18
2019-05-25T03:45:57.156Z,13.48
2019-05-25T03:48:25.370Z,13.03
2019-05-25T03:50:53.599Z,12.10
2019-05-25T03:53:21.862Z,12.85
2019-05-25T03:56:04.673Z,12.70
2019-05-25T03:58:20.027Z,10.25
2019-05-25T04:00:48.258Z,17.20
2019-05-25T04:03:16.505Z,14.28
2019-05-25T04:05:44.764Z,13.28
2019-05-25T04:08:12.993Z,14.98
2019-05-25T04:10:41.251Z,16.23
2019-05-25T04:13:09.462Z,14.23
2019-05-25T04:15:37.712Z,14.63
2019-05-25T04:18:05.945Z,13.15
2019-05-25T04:20:34.256Z,10.17
2019-05-25T04:23:02.463Z,15.30
2019-05-25T04:25:30.702Z,12.73
2019-05-25T04:27:59.018Z,11.60
2019-05-25T04:30:27.229Z,12.03
2019-05-25T04:32:55.431Z,15.95
2019-05-25T04:35:23.646Z,10.95
2019-05-25T04:37:51.875Z,12.23
2019-05-25T04:40:22.988Z,15.03
2019-05-25T04:42:50.053Z,17.23
2019-05-25T04:45:18.301Z,14.07
2019-05-25T04:47:46.513Z,11.65
2019-05-25T04:50:14.757Z,13.13
2019-05-25T04:52:42.964Z,10.75
2019-05-25T04:55:11.196Z,14.18
2019-05-25T04:57:39.413Z,19.82
2019-05-25T05:00:08.441Z,16.45
2019-05-25T05:02:36.654Z,12.80
2019-05-25T05:05:05.684Z,12.13
2019-05-25T05:07:33.907Z,14.10
2019-05-25T05:10:03.394Z,12.78
2019-05-25T05:12:31.735Z,13.95
2019-05-25T05:14:59.968Z,10.63
2019-05-25T05:17:28.176Z,11.33
2019-05-25T05:19:56.393Z,10.68
2019-05-25T05:22:24.699Z,12.70
2019-05-25T05:24:52.871Z,13.30
2019-05-25T05:27:21.142Z,12.73
2019-05-25T05:29:49.382Z,15.50
2019-05-25T05:32:27.181Z,12.47
2019-05-25T05:34:47.542Z,9.30
2019-05-25T05:37:15.757Z,13.08
2019-05-25T05:39:44.036Z,13.68
2019-05-25T05:42:14.674Z,11.93
2019-05-25T05:44:42.899Z,12.55
2019-05-25T05:47:13.154Z,12.00
2019-05-25T05:49:41.404Z,11.65
2019-05-25T05:52:09.642Z,11.57
2019-05-25T05:54:37.906Z,10.08
2019-05-25T05:57:12.326Z,11.20
2019-05-25T05:59:36.179Z,11.38
2019-05-25T06:02:04.411Z,10.30
2019-05-25T06:04:32.632Z,11.38
2019-05-25T06:07:00.934Z,11.38
2019-05-25T06:09:29.102Z,14.38
2019-05-25T06:11:57.365Z,14.68
2019-05-25T06:14:25.651Z,13.25
2019-05-25T06:16:54.075Z,13.05
2019-05-25T06:19:22.350Z,14.30
2019-05-25T06:21:50.768Z,12.15
2019-05-25T06:24:19.612Z,12.00
2019-05-25T06:26:47.825Z,15.18
2019-05-25T06:29:16.029Z,13.60
2019-05-25T06:31:44.260Z,12.05
2019-05-25T06:34:12.496Z,8.28
2019-05-25T06:36:40.720Z,9.63
2019-05-25T06:39:08.980Z,12.95
2019-05-25T06:41:37.194Z,11.60
2019-05-25T06:44:05.684Z,11.12
2019-05-25T06:46:33.899Z,14.58
2019-05-25T06:49:02.158Z,13.72
2019-05-25T06:51:30.350Z,15.98
2019-05-25T06:53:58.570Z,13.08
2019-05-25T06:56:26.798Z,12.23
2019-05-25T06:58:55.010Z,12.28
2019-05-25T07:01:23.254Z,9.40
2019-05-25T07:03:51.593Z,11.38
2019-05-25T07:06:20.006Z,12.43
2019-05-25T07:08:48.231Z,10.45
2019-05-25T07:11:16.444Z,11.60
2019-05-25T07:13:44.657Z,7.85
2019-05-25T07:16:12.886Z,11.08
2019-05-25T07:18:41.101Z,9.20
2019-05-25T07:21:09.314Z,9.55
2019-05-25T07:23:37.623Z,8.17
2019-05-25T07:26:05.820Z,10.60
2019-05-25T07:28:34.044Z,6.72
2019-05-25T07:31:02.339Z,5.92
2019-05-25T07:33:30.560Z,6.58
2019-05-25T07:35:58.810Z,6.35
2019-05-25T07:38:27.010Z,8.83
2019-05-25T07:40:55.220Z,7.37
2019-05-25T07:43:23.438Z,8.45
2019-05-25T07:45:51.677Z,4.90
2019-05-25T07:48:19.907Z,6.12
2019-05-25T07:50:48.116Z,6.03
2019-05-25T07:53:16.405Z,7.40
2019-05-25T07:55:44.602Z,5.85
2019-05-25T07:58:17.482Z,6.28
2019-05-25T08:00:42.797Z,5.67
2019-05-25T08:03:11.005Z,5.20
2019-05-25T08:05:39.233Z,7.20
2019-05-25T08:08:07.462Z,4.70
2019-05-25T08:10:35.646Z,6.17
2019-05-25T08:13:03.868Z,4.15
2019-05-25T08:15:32.075Z,7.85
2019-05-25T08:18:00.394Z,7.35
2019-05-25T08:20:28.594Z,6.23
2019-05-25T08:22:56.812Z,4.95
2019-05-25T08:25:25.099Z,7.47
2019-05-25T08:27:53.319Z,6.05
2019-05-25T08:30:21.823Z,6.92
2019-05-25T08:32:50.044Z,7.87
2019-05-25T08:35:18.261Z,5.40
2019-05-25T08:37:46.507Z,4.78
2019-05-25T08:40:14.811Z,5.85
2019-05-25T08:42:42.977Z,7.37
2019-05-25T08:45:11.226Z,6.42
2019-05-25T08:47:39.515Z,5.33
2019-05-25T08:50:08.198Z,4.60
2019-05-25T08:52:36.766Z,6.17
2019-05-25T08:55:06.717Z,9.70
2019-05-25T08:57:34.937Z,8.25
2019-05-25T09:00:04.350Z,7.55
2019-05-25T09:02:32.662Z,6.47
2019-05-25T09:05:00.909Z,4.67
2019-05-25T09:07:29.283Z,9.85
2019-05-25T09:09:57.518Z,6.30
2019-05-25T09:12:25.736Z,6.70
2019-05-25T09:14:54.004Z,3.65
2019-05-25T09:17:22.190Z,5.70
2019-05-25T09:19:52.177Z,5.03
2019-05-25T09:22:20.410Z,3.83
2019-05-25T09:24:48.628Z,5.60
2019-05-25T09:27:16.859Z,5.03
2019-05-25T09:29:45.092Z,3.65
2019-05-25T09:32:13.611Z,6.35
2019-05-25T09:34:41.800Z,4.33
2019-05-25T09:37:10.108Z,5.00
2019-05-25T09:39:38.303Z,6.12
2019-05-25T09:42:06.526Z,4.85
2019-05-25T09:44:34.740Z,8.73
2019-05-25T09:47:02.951Z,3.90
2019-05-25T09:49:31.185Z,7.03
2019-05-25T09:51:59.385Z,6.00
2019-05-25T09:54:27.591Z,4.90
2019-05-25T09:56:55.840Z,4.95
2019-05-25T09:59:24.045Z,3.27
2019-05-25T10:01:52.270Z,3.15
2019-05-25T10:04:20.475Z,1.85
2019-05-25T10:06:48.731Z,3.85
2019-05-25T10:09:16.956Z,4.10
2019-05-25T10:11:45.171Z,3.37
2019-05-25T10:14:13.412Z,4.28
2019-05-25T10:16:41.665Z,5.62
2019-05-25T10:19:09.903Z,4.90
2019-05-25T10:21:38.139Z,5.10
2019-05-25T10:24:06.374Z,3.35
2019-05-25T10:26:34.604Z,5.37
2019-05-25T10:29:02.822Z,4.45
2019-05-25T10:31:31.033Z,5.37
2019-05-25T10:33:59.385Z,3.93
2019-05-25T10:36:27.592Z,5.28
2019-05-25T10:38:55.830Z,8.63
2019-05-25T10:41:26.750Z,4.08
2019-05-25T10:43:54.972Z,7.12
2019-05-25T10:46:23.226Z,5.87
2019-05-25T10:48:51.418Z,3.95
2019-05-25T10:51:19.743Z,6.10
2019-05-25T10:53:47.954Z,6.20
2019-05-25T10:56:16.157Z,5.55
2019-05-25T10:58:44.410Z,6.25
2019-05-25T11:01:12.667Z,8.05
2019-05-25T11:03:40.872Z,7.45
2019-05-25T11:06:09.094Z,8.90
2019-05-25T11:08:37.324Z,9.23
2019-05-25T11:11:05.580Z,8.43
2019-05-25T11:13:33.800Z,6.22
2019-05-25T11:16:02.038Z,5.47
2019-05-25T11:18:30.254Z,5.20
2019-05-25T11:20:58.842Z,5.97
2019-05-25T11:23:27.083Z,7.08
2019-05-25T11:25:55.301Z,4.92
2019-05-25T11:28:23.509Z,5.37
2019-05-25T11:30:51.747Z,5.90
2019-05-25T11:33:19.962Z,6.00
2019-05-25T11:35:48.235Z,5.90
2019-05-25T11:38:16.397Z,4.92
2019-05-25T11:40:44.702Z,5.00
2019-05-25T11:43:12.983Z,4.62
2019-05-25T11:45:41.182Z,5.80
2019-05-25T11:48:09.388Z,6.03
2019-05-25T11:50:37.612Z,6.80
2019-05-25T11:53:06.185Z,5.80
2019-05-25T11:55:34.555Z,8.88
2019-05-25T11:58:02.786Z,6.10
2019-05-25T12:00:31.453Z,7.08
2019-05-25T12:02:59.681Z,5.67
2019-05-25T12:05:27.906Z,4.83
2019-05-25T12:07:56.145Z,4.78
2019-05-25T12:10:26.045Z,7.00
2019-05-25T12:12:54.306Z,4.17
2019-05-25T12:15:22.496Z,6.50
2019-05-25T12:17:50.722Z,11.25
2019-05-25T12:20:19.137Z,7.03
2019-05-25T12:22:47.343Z,8.63
2019-05-25T12:25:15.540Z,8.85
2019-05-25T12:27:43.760Z,6.28
2019-05-25T12:30:13.786Z,6.58
2019-05-25T12:32:42.006Z,6.62
2019-05-25T12:35:10.221Z,6.37
2019-05-25T12:37:38.458Z,5.78
2019-05-25T12:40:07.042Z,7.97
2019-05-25T12:42:35.271Z,7.62
2019-05-25T12:45:03.975Z,9.00
2019-05-25T12:47:32.205Z,6.13
2019-05-25T12:50:00.382Z,8.18
2019-05-25T12:52:28.598Z,7.70
2019-05-25T12:54:58.447Z,8.00
2019-05-25T12:57:26.659Z,7.15
2019-05-25T12:59:54.921Z,7.53
2019-05-25T13:02:23.117Z,6.35
2019-05-25T13:04:51.322Z,6.22
2019-05-25T13:07:19.678Z,5.62
2019-05-25T13:09:47.899Z,5.80
2019-05-25T13:12:16.225Z,6.05
2019-05-25T13:14:44.442Z,7.92
2019-05-25T13:17:12.669Z,6.80
2019-05-25T13:19:40.885Z,6.35
2019-05-25T13:22:09.358Z,7.30
2019-05-25T13:24:37.699Z,6.37
2019-05-25T13:27:05.889Z,9.98
2019-05-25T13:29:34.222Z,7.72
2019-05-25T13:32:02.442Z,6.40
2019-05-25T13:34:31.122Z,7.05
2019-05-25T13:37:01.735Z,9.40
2019-05-25T13:39:29.307Z,8.63
2019-05-25T13:41:57.533Z,6.58
2019-05-25T13:44:26.281Z,7.17
2019-05-25T13:46:55.300Z,8.93
2019-05-25T13:49:23.501Z,7.97
2019-05-25T13:51:51.759Z,6.15
2019-05-25T13:54:19.953Z,6.17
2019-05-25T13:56:48.290Z,7.92
2019-05-25T13:59:16.511Z,6.55
2019-05-25T14:01:44.760Z,8.18
2019-05-25T14:04:13.003Z,6.95
2019-05-25T14:06:41.238Z,8.00
2019-05-25T14:09:09.454Z,7.17
2019-05-25T14:11:37.661Z,6.07
2019-05-25T14:14:06.046Z,5.83
2019-05-25T14:16:34.290Z,6.67
2019-05-25T14:19:02.552Z,6.62
2019-05-25T14:21:30.786Z,8.53
2019-05-25T14:23:58.938Z,7.85
2019-05-25T14:26:27.209Z,7.40
2019-05-25T14:28:55.531Z,5.08
2019-05-25T14:31:25.357Z,6.42
2019-05-25T14:33:53.734Z,5.17
2019-05-25T14:36:22.466Z,6.55
2019-05-25T14:38:50.764Z,6.62
2019-05-25T14:41:18.976Z,6.08
2019-05-25T14:43:47.183Z,6.92
2019-05-25T14:46:27.407Z,5.33
2019-05-25T14:48:45.363Z,6.92
2019-05-25T14:51:13.592Z,7.75
2019-05-25T14:53:41.791Z,6.70
2019-05-25T14:56:10.005Z,7.53
2019-05-25T14:58:38.647Z,8.43
2019-05-25T15:01:06.973Z,5.08
2019-05-25T15:03:35.198Z,6.87
2019-05-25T15:06:03.415Z,6.83
2019-05-25T15:08:31.647Z,7.00
2019-05-25T15:10:59.847Z,6.65
2019-05-25T15:13:28.072Z,5.80
2019-05-25T15:15:56.279Z,5.00
2019-05-25T15:18:24.516Z,5.50
2019-05-25T15:20:52.714Z,4.67
2019-05-25T15:23:21.255Z,7.64
2019-05-25T15:25:49.473Z,6.37
2019-05-25T15:28:17.676Z,4.95
2019-05-25T15:30:46.027Z,7.50
2019-05-25T15:33:14.265Z,5.90
2019-05-25T15:35:42.556Z,8.93
2019-05-25T15:38:10.866Z,6.55
2019-05-25T15:40:39.256Z,7.90
2019-05-25T15:43:07.504Z,7.80
2019-05-25T15:45:35.826Z,5.92
2019-05-25T15:48:04.142Z,7.50
2019-05-25T15:50:32.353Z,6.37
2019-05-25T15:53:00.570Z,7.53
2019-05-25T15:55:28.783Z,9.45
2019-05-25T15:57:57.003Z,5.75
2019-05-25T16:00:34.248Z,8.25
2019-05-25T16:03:02.481Z,5.17
2019-05-25T16:05:30.767Z,6.87
2019-05-25T16:07:59.002Z,7.35
2019-05-25T16:10:27.213Z,4.60
2019-05-25T16:12:55.431Z,6.35
2019-05-25T16:15:27.624Z,7.42
2019-05-25T16:17:55.813Z,6.17
2019-05-25T16:20:24.036Z,7.28
2019-05-25T16:22:52.254Z,5.37
2019-05-25T16:25:20.451Z,8.88
2019-05-25T16:27:48.664Z,11.50
2019-05-25T16:30:16.926Z,4.60
2019-05-25T16:33:10.935Z,8.38
2019-05-25T16:35:15.164Z,5.87
2019-05-25T16:37:43.666Z,8.63
2019-05-25T16:40:12.072Z,7.53
2019-05-25T16:42:40.309Z,7.50
2019-05-25T16:45:09.862Z,8.03
2019-05-25T16:47:38.091Z,4.92
2019-05-25T16:50:07.938Z,6.17
2019-05-25T16:52:36.157Z,10.00
2019-05-25T16:55:06.221Z,6.28
2019-05-25T16:57:34.440Z,4.33
2019-05-25T17:00:02.752Z,5.33
2019-05-25T17:02:30.961Z,5.07
2019-05-25T17:04:59.209Z,6.42
2019-05-25T17:07:27.432Z,7.60
2019-05-25T17:09:55.671Z,5.22
2019-05-25T17:12:23.919Z,6.15
2019-05-25T17:14:52.155Z,6.62
2019-05-25T17:17:21.484Z,5.06
2019-05-25T17:19:49.688Z,3.98
2019-05-25T17:22:17.907Z,4.97
2019-05-25T17:24:46.142Z,7.53
2019-05-25T17:27:14.352Z,5.62
2019-05-25T17:29:42.653Z,5.72
2019-05-25T17:32:10.849Z,6.67
2019-05-25T17:34:39.065Z,7.40
2019-05-25T17:37:07.302Z,6.08
2019-05-25T17:39:35.503Z,6.25
2019-05-25T17:42:04.157Z,7.17
2019-05-25T17:44:32.382Z,6.43
2019-05-25T17:47:00.628Z,5.00
2019-05-25T17:49:28.830Z,4.95
2019-05-25T17:51:57.127Z,8.93
2019-05-25T17:54:25.360Z,8.78
2019-05-25T17:56:53.545Z,7.08
2019-05-25T17:59:21.815Z,7.35
2019-05-25T18:01:50.033Z,4.95
2019-05-25T18:04:18.247Z,7.72
2019-05-25T18:06:46.466Z,6.83
2019-05-25T18:09:14.694Z,8.15
2019-05-25T18:11:42.912Z,6.60
2019-05-25T18:14:11.123Z,4.37
2019-05-25T18:16:39.383Z,6.15
2019-05-25T18:19:07.660Z,7.58
2019-05-25T18:21:35.865Z,6.58
2019-05-25T18:24:04.255Z,8.28
2019-05-25T18:26:32.608Z,6.07
2019-05-25T18:29:00.889Z,4.97
2019-05-25T18:31:29.101Z,5.83
2019-05-25T18:33:57.358Z,6.42
2019-05-25T18:36:25.570Z,5.33
2019-05-25T18:38:53.790Z,4.00
2019-05-25T18:41:22.002Z,6.65
2019-05-25T18:43:50.229Z,4.90
2019-05-25T18:46:18.427Z,10.88
2019-05-25T18:48:46.632Z,6.83
2019-05-25T18:51:14.865Z,6.22
2019-05-25T18:53:43.064Z,4.92
2019-05-25T18:56:11.302Z,5.50
2019-05-25T18:58:39.519Z,5.70
2019-05-25T19:01:07.739Z,4.97
2019-05-25T19:03:35.962Z,5.47
2019-05-25T19:06:04.163Z,5.53
2019-05-25T19:08:32.480Z,6.40
2019-05-25T19:11:00.714Z,5.42
2019-05-25T19:13:28.945Z,6.05
2019-05-25T19:15:57.165Z,6.97
2019-05-25T19:18:25.381Z,5.50
2019-05-25T19:20:53.602Z,6.62
2019-05-25T19:23:21.863Z,8.63
2019-05-25T19:25:50.075Z,4.87
2019-05-25T19:28:18.341Z,5.25
2019-05-25T19:30:46.517Z,7.40
2019-05-25T19:33:14.734Z,6.65
2019-05-25T19:35:42.955Z,7.10
2019-05-25T19:38:11.240Z,6.37
2019-05-25T19:40:39.474Z,4.78
2019-05-25T19:43:07.704Z,5.53
2019-05-25T19:45:35.928Z,5.35
2019-05-25T19:48:04.200Z,5.50
2019-05-25T19:50:32.531Z,6.97
2019-05-25T19:53:00.803Z,9.33
2019-05-25T19:55:29.045Z,7.17
2019-05-25T19:57:57.283Z,5.75
2019-05-25T20:00:25.495Z,5.50
2019-05-25T20:02:53.807Z,8.35
2019-05-25T20:05:22.160Z,6.75
2019-05-25T20:07:50.381Z,6.60
2019-05-25T20:10:18.582Z,6.58
2019-05-25T20:12:46.800Z,5.62
2019-05-25T20:15:15.108Z,5.15
2019-05-25T20:17:43.325Z,7.05
2019-05-25T20:20:11.550Z,6.92
2019-05-25T20:22:39.754Z,6.25
2019-05-25T20:25:07.969Z,6.03
2019-05-25T20:27:36.196Z,6.87
2019-05-25T20:30:08.730Z,5.08
2019-05-25T20:32:37.003Z,5.13
2019-05-25T20:35:06.093Z,6.33
2019-05-25T20:37:34.315Z,7.03
2019-05-25T20:40:02.597Z,7.47
2019-05-25T20:42:30.826Z,6.45
2019-05-25T20:44:59.036Z,8.48
2019-05-25T20:47:27.246Z,8.03
2019-05-25T20:49:55.456Z,4.08
2019-05-25T20:52:23.742Z,5.62
2019-05-25T20:54:51.946Z,5.60
2019-05-25T20:57:20.191Z,5.83
2019-05-25T20:59:48.400Z,5.50
2019-05-25T21:02:16.626Z,6.58
2019-05-25T21:04:44.848Z,4.47
2019-05-25T21:07:13.057Z,4.70
2019-05-25T21:09:41.266Z,5.40
2019-05-25T21:12:09.506Z,5.17
2019-05-25T21:14:37.711Z,4.10
2019-05-25T21:17:05.940Z,4.03
2019-05-25T21:19:34.151Z,5.03
2019-05-25T21:22:02.357Z,5.00
2019-05-25T21:24:30.594Z,4.58
2019-05-25T21:26:58.801Z,4.87
2019-05-25T21:29:27.011Z,6.57
2019-05-25T21:31:55.240Z,6.65
2019-05-25T21:34:23.519Z,5.80
2019-05-25T21:36:51.713Z,4.87
2019-05-25T21:39:19.945Z,5.65
2019-05-25T21:41:48.252Z,5.95
2019-05-25T21:44:16.419Z,7.33
2019-05-25T21:46:44.673Z,5.85
2019-05-25T21:49:12.902Z,4.53
2019-05-25T21:51:41.123Z,4.85
2019-05-25T21:54:09.341Z,4.90
2019-05-25T21:56:37.584Z,6.57
2019-05-25T21:59:05.829Z,6.10
2019-05-25T22:01:34.055Z,5.47
2019-05-25T22:04:02.267Z,4.83
2019-05-25T22:06:30.469Z,5.47
2019-05-25T22:08:58.718Z,7.22
2019-05-25T22:11:26.922Z,4.90
2019-05-25T22:13:55.171Z,5.55
2019-05-25T22:16:23.423Z,7.07
2019-05-25T22:18:51.685Z,6.83
2019-05-25T22:21:19.912Z,6.40
2019-05-25T22:23:48.149Z,7.17
2019-05-25T22:26:16.360Z,8.50
2019-05-25T22:28:46.963Z,7.60
2019-05-25T22:31:15.225Z,6.42
2019-05-25T22:33:43.449Z,6.67
2019-05-25T22:36:11.678Z,7.35
2019-05-25T22:38:39.899Z,6.97
2019-05-25T22:41:08.142Z,6.92
2019-05-25T22:43:36.342Z,6.87
2019-05-25T22:46:04.591Z,7.97
2019-05-25T22:48:32.810Z,8.63
2019-05-25T22:51:00.999Z,6.00
2019-05-25T22:53:29.256Z,6.78
2019-05-25T22:55:57.470Z,6.97
2019-05-25T22:58:25.688Z,8.98
2019-05-25T23:00:53.946Z,6.50
2019-05-25T23:03:22.155Z,6.85
2019-05-25T23:05:50.387Z,7.10
2019-05-25T23:08:18.648Z,9.40
2019-05-25T23:10:46.868Z,9.18
2019-05-25T23:13:15.313Z,7.10
2019-05-25T23:15:43.526Z,8.68
2019-05-25T23:18:11.839Z,9.10
2019-05-25T23:20:40.073Z,7.50
2019-05-25T23:23:08.357Z,6.78
2019-05-25T23:25:36.621Z,8.48
2019-05-25T23:28:04.884Z,7.67
2019-05-25T23:30:33.095Z,9.00
2019-05-25T23:33:01.346Z,8.43
2019-05-25T23:35:29.542Z,8.33
2019-05-25T23:37:57.771Z,9.38
2019-05-25T23:40:25.984Z,8.93
2019-05-25T23:42:54.234Z,9.88
2019-05-25T23:45:22.455Z,10.40
2019-05-25T23:47:50.867Z,9.40
2019-05-25T23:50:19.067Z,8.10
2019-05-25T23:52:47.297Z,9.78
2019-05-25T23:55:15.498Z,8.18
2019-05-25T23:57:43.758Z,9.20
